createdAt,value
2017-08-08T00:00:00.004Z,946
2017-08-08T00:01:07.785Z,946
2017-08-08T00:02:15.260Z,946
2017-08-08T00:03:22.737Z,945
2017-08-08T00:04:30.215Z,945
2017-08-08T00:05:37.363Z,945
2017-08-08T00:06:45.143Z,945
2017-08-08T00:07:52.621Z,945
2017-08-08T00:09:00.117Z,945
2017-08-08T00:10:07.592Z,945
2017-08-08T00:11:15.097Z,946
2017-08-08T00:12:22.878Z,946
2017-08-08T00:13:30.354Z,944
2017-08-08T00:14:37.831Z,945
2017-08-08T00:15:44.643Z,945
2017-08-08T00:16:52.128Z,944
2017-08-08T00:17:59.915Z,944
2017-08-08T00:19:07.060Z,944
2017-08-08T00:20:14.551Z,944
2017-08-08T00:21:21.700Z,944
2017-08-08T00:22:29.187Z,944
2017-08-08T00:23:36.969Z,944
2017-08-08T00:24:44.447Z,944
2017-08-08T00:25:51.925Z,944
2017-08-08T00:26:59.073Z,943
2017-08-08T00:28:06.562Z,943
2017-08-08T00:29:14.336Z,943
2017-08-08T00:30:21.817Z,943
2017-08-08T00:31:29.296Z,943
2017-08-08T00:32:36.777Z,943
2017-08-08T00:33:44.269Z,943
2017-08-08T00:34:51.725Z,943
2017-08-08T00:35:59.209Z,942
2017-08-08T00:37:06.693Z,942
2017-08-08T00:38:14.176Z,942
2017-08-08T00:39:21.650Z,942
2017-08-08T00:40:44.016Z,942
2017-08-08T00:41:51.493Z,942
2017-08-08T00:42:58.659Z,943
2017-08-08T00:44:06.138Z,942
2017-08-08T00:45:13.633Z,942
2017-08-08T00:46:21.412Z,942
2017-08-08T00:47:43.476Z,942
2017-08-08T00:48:50.954Z,941
2017-08-08T00:49:58.445Z,942
2017-08-08T00:51:05.933Z,942
2017-08-08T00:52:13.713Z,942
2017-08-08T00:53:21.200Z,942
2017-08-08T00:54:28.678Z,941
2017-08-08T00:55:36.156Z,941
2017-08-08T00:56:43.646Z,940
2017-08-08T00:57:51.104Z,941
2017-08-08T00:58:58.590Z,941
2017-08-08T01:00:06.097Z,941
2017-08-08T01:01:13.252Z,941
2017-08-08T01:02:20.754Z,940
2017-08-08T01:03:28.531Z,940
2017-08-08T01:04:35.357Z,941
2017-08-08T01:05:42.835Z,940
2017-08-08T01:06:50.318Z,939
2017-08-08T01:07:57.808Z,939
2017-08-08T01:09:05.587Z,941
2017-08-08T01:10:12.737Z,941
2017-08-08T01:11:20.218Z,941
2017-08-08T01:12:27.703Z,941
2017-08-08T01:13:35.184Z,940
2017-08-08T01:14:42.963Z,940
2017-08-08T01:15:50.115Z,940
2017-08-08T01:16:57.607Z,941
2017-08-08T01:18:05.091Z,940
2017-08-08T01:19:12.593Z,940
2017-08-08T01:20:20.374Z,940
2017-08-08T01:21:27.851Z,939
2017-08-08T01:22:35.333Z,940
2017-08-08T01:23:42.815Z,940
2017-08-08T01:25:04.878Z,940
2017-08-08T01:26:12.653Z,938
2017-08-08T01:27:20.128Z,939
2017-08-08T01:28:27.608Z,938
2017-08-08T01:29:35.091Z,938
2017-08-08T01:30:42.573Z,938
2017-08-08T01:31:50.357Z,938
2017-08-08T01:32:57.838Z,938
2017-08-08T01:34:05.312Z,938
2017-08-08T01:35:12.791Z,937
2017-08-08T01:36:20.273Z,937
2017-08-08T01:37:28.051Z,937
2017-08-08T01:38:35.532Z,937
2017-08-08T01:39:43.014Z,937
2017-08-08T01:40:50.492Z,937
2017-08-08T01:41:57.972Z,937
2017-08-08T01:43:05.749Z,936
2017-08-08T01:44:13.232Z,936
2017-08-08T01:45:20.706Z,936
2017-08-08T01:46:28.185Z,936
2017-08-08T01:47:35.670Z,936
2017-08-08T01:48:43.449Z,935
2017-08-08T01:49:52.054Z,934
2017-08-08T01:50:59.545Z,935
2017-08-08T01:52:07.033Z,934
2017-08-08T01:53:14.509Z,933
2017-08-08T01:54:22.288Z,932
2017-08-08T01:55:29.770Z,933
2017-08-08T01:56:36.917Z,932
2017-08-08T01:57:44.401Z,931
2017-08-08T01:58:51.875Z,931
2017-08-08T01:59:59.656Z,931
2017-08-08T02:01:07.139Z,930
2017-08-08T02:02:14.304Z,930
2017-08-08T02:03:21.786Z,931
2017-08-08T02:04:29.263Z,930
2017-08-08T02:05:37.044Z,930
2017-08-08T02:06:44.532Z,930
2017-08-08T02:07:52.018Z,929
2017-08-08T02:08:59.499Z,929
2017-08-08T02:10:06.977Z,928
2017-08-08T02:11:14.751Z,928
2017-08-08T02:12:22.254Z,927
2017-08-08T02:13:29.734Z,926
2017-08-08T02:14:36.887Z,927
2017-08-08T02:15:44.364Z,926
2017-08-08T02:16:52.140Z,926
2017-08-08T02:17:59.282Z,926
2017-08-08T02:19:06.761Z,926
2017-08-08T02:20:14.240Z,926
2017-08-08T02:21:21.716Z,926
2017-08-08T02:22:29.158Z,926
2017-08-08T02:23:36.637Z,926
2017-08-08T02:24:44.115Z,924
2017-08-08T02:25:51.592Z,925
2017-08-08T02:26:59.084Z,925
2017-08-08T02:28:06.857Z,925
2017-08-08T02:29:14.355Z,925
2017-08-08T02:30:21.834Z,925
2017-08-08T02:31:29.312Z,924
2017-08-08T02:32:36.460Z,925
2017-08-08T02:33:43.911Z,924
2017-08-08T02:34:51.397Z,924
2017-08-08T02:35:58.884Z,925
2017-08-08T02:37:06.365Z,925
2017-08-08T02:38:13.533Z,925
2017-08-08T02:39:21.318Z,925
2017-08-08T02:40:28.792Z,925
2017-08-08T02:41:36.270Z,924
2017-08-08T02:42:43.749Z,924
2017-08-08T02:43:51.230Z,924
2017-08-08T02:44:59.009Z,923
2017-08-08T02:46:06.502Z,923
2017-08-08T02:47:14.004Z,923
2017-08-08T02:48:21.493Z,923
2017-08-08T02:49:28.967Z,923
2017-08-08T02:50:36.741Z,923
2017-08-08T02:51:44.228Z,922
2017-08-08T02:52:51.705Z,922
2017-08-08T02:53:59.180Z,921
2017-08-08T02:55:06.683Z,921
2017-08-08T02:56:14.456Z,919
2017-08-08T02:57:21.611Z,920
2017-08-08T02:58:29.102Z,919
2017-08-08T02:59:36.582Z,919
2017-08-08T03:00:44.065Z,919
2017-08-08T03:01:51.514Z,917
2017-08-08T03:02:58.995Z,917
2017-08-08T03:04:06.475Z,917
2017-08-08T03:05:13.297Z,916
2017-08-08T03:06:20.774Z,916
2017-08-08T03:07:28.553Z,915
2017-08-08T03:08:36.029Z,916
2017-08-08T03:09:43.173Z,915
2017-08-08T03:10:50.654Z,915
2017-08-08T03:11:57.800Z,915
2017-08-08T03:13:05.578Z,915
2017-08-08T03:14:13.058Z,914
2017-08-08T03:15:20.538Z,914
2017-08-08T03:16:28.018Z,915
2017-08-08T03:17:35.499Z,914
2017-08-08T03:18:43.280Z,914
2017-08-08T03:19:50.766Z,916
2017-08-08T03:20:58.241Z,915
2017-08-08T03:22:05.719Z,915
2017-08-08T03:23:13.200Z,915
2017-08-08T03:24:20.994Z,915
2017-08-08T03:25:28.476Z,915
2017-08-08T03:26:35.946Z,916
2017-08-08T03:27:43.425Z,917
2017-08-08T03:28:50.906Z,917
2017-08-08T03:29:58.687Z,916
2017-08-08T03:31:06.172Z,917
2017-08-08T03:32:13.318Z,917
2017-08-08T03:33:20.798Z,917
2017-08-08T03:34:28.278Z,917
2017-08-08T03:35:36.067Z,917
2017-08-08T03:36:43.547Z,917
2017-08-08T03:37:51.024Z,916
2017-08-08T03:38:58.508Z,917
2017-08-08T03:40:05.991Z,916
2017-08-08T03:41:13.774Z,918
2017-08-08T03:42:20.922Z,917
2017-08-08T03:43:28.083Z,917
2017-08-08T03:44:35.566Z,917
2017-08-08T03:45:43.061Z,918
2017-08-08T03:46:50.534Z,917
2017-08-08T03:47:58.010Z,919
2017-08-08T03:49:05.482Z,917
2017-08-08T03:50:12.954Z,918
2017-08-08T03:51:20.102Z,919
2017-08-08T03:52:27.877Z,918
2017-08-08T03:53:35.355Z,917
2017-08-08T03:54:42.835Z,918
2017-08-08T03:55:50.322Z,918
2017-08-08T03:56:57.794Z,918
2017-08-08T03:58:05.571Z,918
2017-08-08T03:59:13.051Z,918
2017-08-08T04:00:20.534Z,918
2017-08-08T04:01:28.014Z,918
2017-08-08T04:02:35.162Z,917
2017-08-08T04:03:43.173Z,916
2017-08-08T04:04:50.651Z,917
2017-08-08T04:05:57.806Z,917
2017-08-08T04:07:05.286Z,917
2017-08-08T04:08:12.768Z,917
2017-08-08T04:09:19.915Z,917
2017-08-08T04:10:27.397Z,917
2017-08-08T04:11:35.074Z,916
2017-08-08T04:12:42.559Z,917
2017-08-08T04:13:50.344Z,916
2017-08-08T04:14:57.485Z,917
2017-08-08T04:16:04.964Z,916
2017-08-08T04:17:12.480Z,915
2017-08-08T04:18:19.967Z,917
2017-08-08T04:19:27.756Z,916
2017-08-08T04:20:35.238Z,916
2017-08-08T04:21:42.715Z,917
2017-08-08T04:22:50.196Z,916
2017-08-08T04:23:57.672Z,915
2017-08-08T04:25:05.450Z,915
2017-08-08T04:26:12.928Z,915
2017-08-08T04:27:20.074Z,916
2017-08-08T04:28:27.230Z,916
2017-08-08T04:29:34.701Z,915
2017-08-08T04:30:42.473Z,915
2017-08-08T04:31:49.953Z,916
2017-08-08T04:32:56.793Z,916
2017-08-08T04:34:04.273Z,916
2017-08-08T04:35:11.765Z,917
2017-08-08T04:36:19.242Z,915
2017-08-08T04:37:26.719Z,916
2017-08-08T04:38:33.876Z,917
2017-08-08T04:39:41.364Z,916
2017-08-08T04:40:48.852Z,916
2017-08-08T04:41:56.290Z,916
2017-08-08T04:43:03.784Z,915
2017-08-08T04:44:11.258Z,916
2017-08-08T04:45:18.735Z,916
2017-08-08T04:46:26.211Z,914
2017-08-08T04:47:33.991Z,914
2017-08-08T04:48:41.472Z,915
2017-08-08T04:49:48.944Z,915
2017-08-08T04:50:56.421Z,915
2017-08-08T04:52:03.900Z,915
2017-08-08T04:53:11.344Z,916
2017-08-08T04:54:18.845Z,916
2017-08-08T04:55:26.335Z,915
2017-08-08T04:56:33.815Z,916
2017-08-08T04:57:41.296Z,916
2017-08-08T04:58:49.078Z,916
2017-08-08T04:59:57.682Z,916
2017-08-08T05:01:05.167Z,916
2017-08-08T05:02:12.329Z,917
2017-08-08T05:03:19.804Z,916
2017-08-08T05:04:27.585Z,917
2017-08-08T05:05:35.070Z,917
2017-08-08T05:06:42.550Z,916
2017-08-08T05:07:50.025Z,915
2017-08-08T05:08:57.501Z,916
2017-08-08T05:10:05.283Z,914
2017-08-08T05:11:12.771Z,915
2017-08-08T05:12:20.238Z,915
2017-08-08T05:13:27.713Z,914
2017-08-08T05:14:35.187Z,914
2017-08-08T05:15:42.662Z,913
2017-08-08T05:16:50.180Z,913
2017-08-08T05:17:57.658Z,912
2017-08-08T05:19:05.150Z,913
2017-08-08T05:20:12.621Z,913
2017-08-08T05:21:20.407Z,914
2017-08-08T05:22:27.227Z,913
2017-08-08T05:23:34.377Z,913
2017-08-08T05:24:41.850Z,913
2017-08-08T05:25:49.000Z,912
2017-08-08T05:26:56.785Z,913
2017-08-08T05:28:03.942Z,913
2017-08-08T05:29:11.420Z,913
2017-08-08T05:30:18.902Z,913
2017-08-08T05:31:26.047Z,912
2017-08-08T05:32:33.490Z,913
2017-08-08T05:33:40.647Z,912
2017-08-08T05:34:47.803Z,912
2017-08-08T05:35:55.281Z,911
2017-08-08T05:37:02.755Z,912
2017-08-08T05:38:10.627Z,910
2017-08-08T05:39:18.107Z,911
2017-08-08T05:40:25.607Z,911
2017-08-08T05:41:33.086Z,911
2017-08-08T05:42:40.798Z,911
2017-08-08T05:43:48.573Z,911
2017-08-08T05:44:56.048Z,911
2017-08-08T05:46:03.198Z,911
2017-08-08T05:47:10.346Z,911
2017-08-08T05:48:17.829Z,911
2017-08-08T05:49:25.275Z,911
2017-08-08T05:50:32.424Z,911
2017-08-08T05:51:39.905Z,910
2017-08-08T05:52:47.381Z,910
2017-08-08T05:53:54.865Z,910
2017-08-08T05:55:02.347Z,910
2017-08-08T05:56:09.827Z,910
2017-08-08T05:57:17.914Z,910
2017-08-08T05:58:25.395Z,909
2017-08-08T05:59:32.899Z,909
2017-08-08T06:00:40.681Z,909
2017-08-08T06:01:48.159Z,909
2017-08-08T06:02:55.640Z,909
2017-08-08T06:04:03.127Z,909
2017-08-08T06:05:10.610Z,909
2017-08-08T06:06:18.393Z,909
2017-08-08T06:07:25.875Z,909
2017-08-08T06:08:33.350Z,909
2017-08-08T06:09:40.831Z,909
2017-08-08T06:10:48.313Z,909
2017-08-08T06:11:56.101Z,909
2017-08-08T06:13:03.263Z,909
2017-08-08T06:14:10.751Z,910
2017-08-08T06:15:18.225Z,909
2017-08-08T06:16:25.376Z,910
2017-08-08T06:17:32.523Z,909
2017-08-08T06:18:40.004Z,909
2017-08-08T06:19:47.156Z,909
2017-08-08T06:20:54.643Z,909
2017-08-08T06:22:02.419Z,909
2017-08-08T06:23:09.901Z,909
2017-08-08T06:24:17.384Z,909
2017-08-08T06:25:24.533Z,910
2017-08-08T06:26:32.019Z,910
2017-08-08T06:27:39.788Z,910
2017-08-08T06:28:47.268Z,909
2017-08-08T06:29:54.742Z,908
2017-08-08T06:31:01.896Z,909
2017-08-08T06:32:09.051Z,908
2017-08-08T06:33:16.824Z,908
2017-08-08T06:34:24.307Z,908
2017-08-08T06:35:31.803Z,908
2017-08-08T06:36:38.957Z,908
2017-08-08T06:37:46.452Z,909
2017-08-08T06:38:54.240Z,908
2017-08-08T06:40:01.717Z,908
2017-08-08T06:41:09.197Z,908
2017-08-08T06:42:16.680Z,908
2017-08-08T06:43:24.161Z,908
2017-08-08T06:44:31.639Z,908
2017-08-08T06:45:39.121Z,908
2017-08-08T06:46:46.612Z,908
2017-08-08T06:47:53.765Z,908
2017-08-08T06:49:01.252Z,907
2017-08-08T06:50:09.038Z,908
2017-08-08T06:51:16.519Z,908
2017-08-08T06:52:24.000Z,908
2017-08-08T06:53:31.486Z,908
2017-08-08T06:54:38.651Z,908
2017-08-08T06:55:46.435Z,909
2017-08-08T06:56:53.928Z,909
2017-08-08T06:58:01.431Z,910
2017-08-08T06:59:08.914Z,910
2017-08-08T07:00:16.060Z,910
2017-08-08T07:01:23.544Z,909
2017-08-08T07:02:30.704Z,910
2017-08-08T07:03:37.853Z,909
2017-08-08T07:04:45.006Z,910
2017-08-08T07:05:52.490Z,910
2017-08-08T07:07:00.270Z,910
2017-08-08T07:08:07.757Z,910
2017-08-08T07:09:15.243Z,909
2017-08-08T07:10:22.719Z,909
2017-08-08T07:11:30.205Z,909
2017-08-08T07:12:37.980Z,909
2017-08-08T07:13:45.131Z,910
2017-08-08T07:14:52.635Z,909
2017-08-08T07:16:00.110Z,909
2017-08-08T07:17:07.591Z,908
2017-08-08T07:18:15.380Z,908
2017-08-08T07:19:22.878Z,908
2017-08-08T07:20:30.354Z,908
2017-08-08T07:21:37.838Z,907
2017-08-08T07:22:44.995Z,907
2017-08-08T07:23:52.474Z,907
2017-08-08T07:24:59.958Z,906
2017-08-08T07:26:07.438Z,908
2017-08-08T07:27:14.934Z,908
2017-08-08T07:28:22.415Z,907
2017-08-08T07:29:30.199Z,907
2017-08-08T07:30:37.688Z,907
2017-08-08T07:31:45.173Z,906
2017-08-08T07:32:52.674Z,907
2017-08-08T07:34:00.186Z,907
2017-08-08T07:35:07.654Z,907
2017-08-08T07:36:15.136Z,907
2017-08-08T07:37:22.612Z,907
2017-08-08T07:38:30.109Z,907
2017-08-08T07:39:37.595Z,907
2017-08-08T07:40:45.509Z,907
2017-08-08T07:41:52.987Z,907
2017-08-08T07:43:00.474Z,907
2017-08-08T07:44:07.960Z,906
2017-08-08T07:45:15.442Z,905
2017-08-08T07:46:23.228Z,905
2017-08-08T07:47:30.711Z,906
2017-08-08T07:48:38.197Z,905
2017-08-08T07:49:45.378Z,905
2017-08-08T07:50:52.862Z,905
2017-08-08T07:52:00.647Z,905
2017-08-08T07:53:08.132Z,905
2017-08-08T07:54:15.616Z,905
2017-08-08T07:55:22.433Z,906
2017-08-08T07:56:29.952Z,906
2017-08-08T07:57:37.735Z,906
2017-08-08T07:58:45.223Z,906
2017-08-08T07:59:52.712Z,906
2017-08-08T08:01:00.191Z,906
2017-08-08T08:02:06.692Z,905
2017-08-08T08:03:14.176Z,905
2017-08-08T08:04:21.656Z,905
2017-08-08T08:05:29.133Z,905
2017-08-08T08:06:36.282Z,905
2017-08-08T08:07:43.445Z,906
2017-08-08T08:08:50.913Z,906
2017-08-08T08:09:58.079Z,906
2017-08-08T08:11:05.563Z,906
2017-08-08T08:12:13.059Z,906
2017-08-08T08:13:20.551Z,907
2017-08-08T08:14:28.353Z,907
2017-08-08T08:15:35.172Z,907
2017-08-08T08:16:42.324Z,908
2017-08-08T08:17:49.486Z,908
2017-08-08T08:18:56.971Z,908
2017-08-08T08:20:04.453Z,908
2017-08-08T08:21:11.602Z,908
2017-08-08T08:22:19.088Z,909
2017-08-08T08:23:26.577Z,909
2017-08-08T08:24:34.054Z,908
2017-08-08T08:25:41.873Z,908
2017-08-08T08:26:49.016Z,909
2017-08-08T08:27:56.499Z,910
2017-08-08T08:29:03.322Z,910
2017-08-08T08:30:10.808Z,912
2017-08-08T08:31:18.596Z,913
2017-08-08T08:32:26.085Z,913
2017-08-08T08:33:34.366Z,913
2017-08-08T08:34:41.854Z,913
2017-08-08T08:35:49.012Z,913
2017-08-08T08:36:56.798Z,914
2017-08-08T08:38:03.953Z,913
2017-08-08T08:39:11.448Z,913
2017-08-08T08:40:18.947Z,913
2017-08-08T08:41:25.771Z,913
2017-08-08T08:42:32.923Z,913
2017-08-08T08:43:40.423Z,913
2017-08-08T08:44:47.908Z,913
2017-08-08T08:45:55.394Z,912
2017-08-08T08:47:02.876Z,913
2017-08-08T08:48:10.664Z,913
2017-08-08T08:49:18.148Z,912
2017-08-08T08:50:25.633Z,912
2017-08-08T08:51:33.117Z,912
2017-08-08T08:52:40.607Z,912
2017-08-08T08:53:48.391Z,911
2017-08-08T08:54:55.875Z,911
2017-08-08T08:56:03.363Z,912
2017-08-08T08:57:10.873Z,912
2017-08-08T08:58:18.364Z,912
2017-08-08T08:59:26.152Z,913
2017-08-08T09:00:33.644Z,912
2017-08-08T09:01:41.132Z,912
2017-08-08T09:02:48.629Z,912
2017-08-08T09:03:56.115Z,911
2017-08-08T09:05:03.919Z,911
2017-08-08T09:06:11.397Z,911
2017-08-08T09:07:18.891Z,910
2017-08-08T09:08:26.044Z,909
2017-08-08T09:09:33.528Z,909
2017-08-08T09:10:41.310Z,909
2017-08-08T09:11:48.800Z,908
2017-08-08T09:12:56.279Z,908
2017-08-08T09:14:03.435Z,908
2017-08-08T09:15:10.592Z,909
2017-08-08T09:16:18.374Z,909
2017-08-08T09:17:25.883Z,909
2017-08-08T09:18:33.378Z,908
2017-08-08T09:19:40.894Z,908
2017-08-08T09:20:48.061Z,908
2017-08-08T09:21:55.544Z,908
2017-08-08T09:23:03.033Z,908
2017-08-08T09:24:10.525Z,907
2017-08-08T09:25:18.015Z,908
2017-08-08T09:26:25.501Z,907
2017-08-08T09:27:33.343Z,907
2017-08-08T09:28:40.823Z,906
2017-08-08T09:29:48.321Z,907
2017-08-08T09:30:55.808Z,909
2017-08-08T09:32:03.292Z,908
2017-08-08T09:33:10.758Z,907
2017-08-08T09:34:18.242Z,907
2017-08-08T09:35:25.741Z,907
2017-08-08T09:36:33.226Z,906
2017-08-08T09:37:40.389Z,906
2017-08-08T09:38:48.181Z,905
2017-08-08T09:39:55.337Z,905
2017-08-08T09:41:02.825Z,905
2017-08-08T09:42:10.309Z,905
2017-08-08T09:43:17.808Z,905
2017-08-08T09:44:25.269Z,905
2017-08-08T09:45:32.752Z,905
2017-08-08T09:46:39.906Z,904
2017-08-08T09:47:47.059Z,904
2017-08-08T09:48:54.565Z,903
2017-08-08T09:50:02.438Z,903
2017-08-08T09:51:09.947Z,903
2017-08-08T09:52:17.437Z,903
2017-08-08T09:53:24.929Z,903
2017-08-08T09:54:32.088Z,902
2017-08-08T09:55:39.865Z,902
2017-08-08T09:56:47.361Z,902
2017-08-08T09:57:54.869Z,901
2017-08-08T09:59:02.364Z,900
2017-08-08T10:00:09.856Z,901
2017-08-08T10:01:17.342Z,900
2017-08-08T10:02:24.498Z,898
2017-08-08T10:03:31.664Z,897
2017-08-08T10:04:39.159Z,896
2017-08-08T10:05:46.663Z,895
2017-08-08T10:06:54.453Z,896
2017-08-08T10:08:01.948Z,900
2017-08-08T10:09:09.437Z,902
2017-08-08T10:10:16.933Z,901
2017-08-08T10:11:24.422Z,900
2017-08-08T10:12:32.218Z,900
2017-08-08T10:13:39.391Z,899
2017-08-08T10:14:46.549Z,899
2017-08-08T10:15:54.035Z,900
2017-08-08T10:17:01.555Z,900
2017-08-08T10:18:09.099Z,900
2017-08-08T10:19:16.595Z,900
2017-08-08T10:20:24.331Z,900
2017-08-08T10:21:31.499Z,901
2017-08-08T10:22:38.652Z,900
2017-08-08T10:23:46.139Z,899
2017-08-08T10:24:53.635Z,899
2017-08-08T10:26:01.130Z,899
2017-08-08T10:27:08.616Z,900
2017-08-08T10:28:16.031Z,900
2017-08-08T10:29:23.783Z,898
2017-08-08T10:30:30.940Z,898
2017-08-08T10:31:38.588Z,896
2017-08-08T10:32:46.075Z,894
2017-08-08T10:33:53.899Z,895
2017-08-08T10:35:01.399Z,897
2017-08-08T10:36:08.524Z,895
2017-08-08T10:37:16.010Z,894
2017-08-08T10:38:23.495Z,894
2017-08-08T10:39:31.287Z,896
2017-08-08T10:40:38.780Z,893
2017-08-08T10:41:46.082Z,892
2017-08-08T10:42:53.580Z,890
2017-08-08T10:44:00.730Z,891
2017-08-08T10:45:08.521Z,890
2017-08-08T10:46:16.012Z,895
2017-08-08T10:47:23.168Z,895
2017-08-08T10:48:30.336Z,895
2017-08-08T10:49:37.830Z,896
2017-08-08T10:50:45.313Z,894
2017-08-08T10:51:52.805Z,891
2017-08-08T10:53:00.297Z,892
2017-08-08T10:54:07.793Z,895
2017-08-08T10:55:14.955Z,895
2017-08-08T10:56:22.740Z,894
2017-08-08T10:57:30.234Z,886
2017-08-08T10:58:37.728Z,884
2017-08-08T10:59:45.223Z,887
2017-08-08T11:00:52.383Z,894
2017-08-08T11:02:00.177Z,897
2017-08-08T11:03:07.666Z,894
2017-08-08T11:04:15.158Z,892
2017-08-08T11:05:22.319Z,892
2017-08-08T11:06:30.208Z,889
2017-08-08T11:07:37.696Z,892
2017-08-08T11:08:44.858Z,893
2017-08-08T11:09:52.249Z,897
2017-08-08T11:10:59.739Z,898
2017-08-08T11:12:07.222Z,895
2017-08-08T11:13:14.684Z,896
2017-08-08T11:14:22.176Z,896
2017-08-08T11:15:29.331Z,898
2017-08-08T11:16:36.824Z,902
2017-08-08T11:17:44.317Z,902
2017-08-08T11:18:52.105Z,901
2017-08-08T11:19:59.612Z,902
2017-08-08T11:21:07.102Z,901
2017-08-08T11:22:14.595Z,902
2017-08-08T11:23:21.758Z,902
2017-08-08T11:24:29.548Z,903
2017-08-08T11:25:37.030Z,902
2017-08-08T11:26:44.521Z,901
2017-08-08T11:27:52.005Z,901
2017-08-08T11:28:59.491Z,902
2017-08-08T11:30:06.979Z,901
2017-08-08T11:31:14.471Z,900
2017-08-08T11:32:21.627Z,893
2017-08-08T11:33:29.122Z,889
2017-08-08T11:34:36.610Z,889
2017-08-08T11:35:44.074Z,891
2017-08-08T11:36:51.561Z,893
2017-08-08T11:37:59.043Z,890
2017-08-08T11:39:06.209Z,888
2017-08-08T11:40:13.367Z,887
2017-08-08T11:41:21.182Z,883
2017-08-08T11:42:28.368Z,884
2017-08-08T11:43:35.872Z,886
2017-08-08T11:44:43.362Z,887
2017-08-08T11:45:51.099Z,888
2017-08-08T11:46:58.607Z,888
2017-08-08T11:48:05.778Z,884
2017-08-08T11:49:13.276Z,885
2017-08-08T11:50:20.755Z,892
2017-08-08T11:51:28.245Z,894
2017-08-08T11:52:36.041Z,892
2017-08-08T11:53:43.545Z,892
2017-08-08T11:54:50.714Z,895
2017-08-08T11:55:58.204Z,895
2017-08-08T11:57:05.709Z,897
2017-08-08T11:58:13.501Z,895
2017-08-08T11:59:20.990Z,897
2017-08-08T12:00:28.772Z,900
2017-08-08T12:01:36.262Z,898
2017-08-08T12:02:43.422Z,897
2017-08-08T12:03:51.216Z,896
2017-08-08T12:04:58.722Z,896
2017-08-08T12:06:05.885Z,896
2017-08-08T12:07:13.050Z,895
2017-08-08T12:08:20.539Z,895
2017-08-08T12:09:28.037Z,896
2017-08-08T12:10:35.217Z,898
2017-08-08T12:11:42.707Z,897
2017-08-08T12:12:49.867Z,896
2017-08-08T12:13:57.366Z,896
2017-08-08T12:15:05.160Z,896
2017-08-08T12:16:12.649Z,897
2017-08-08T12:17:20.151Z,898
2017-08-08T12:18:27.636Z,897
2017-08-08T12:19:35.160Z,897
2017-08-08T12:20:42.670Z,896
2017-08-08T12:21:50.166Z,897
2017-08-08T12:22:57.686Z,896
2017-08-08T12:24:04.850Z,892
2017-08-08T12:25:12.340Z,889
2017-08-08T12:26:20.801Z,884
2017-08-08T12:27:28.292Z,886
2017-08-08T12:28:35.780Z,892
2017-08-08T12:29:42.894Z,897
2017-08-08T12:30:50.384Z,897
2017-08-08T12:31:57.880Z,893
2017-08-08T12:33:05.364Z,890
2017-08-08T12:34:12.855Z,891
2017-08-08T12:35:20.345Z,888
2017-08-08T12:36:27.836Z,885
2017-08-08T12:37:35.299Z,884
2017-08-08T12:38:42.788Z,882
2017-08-08T12:39:49.952Z,879
2017-08-08T12:40:57.440Z,881
2017-08-08T12:42:05.229Z,885
2017-08-08T12:43:12.720Z,887
2017-08-08T12:44:20.213Z,886
2017-08-08T12:45:27.706Z,886
2017-08-08T12:46:34.901Z,892
2017-08-08T12:47:42.702Z,892
2017-08-08T12:48:49.862Z,893
2017-08-08T12:49:57.359Z,895
2017-08-08T12:51:04.846Z,897
2017-08-08T12:52:12.345Z,897
2017-08-08T12:53:20.132Z,897
2017-08-08T12:54:27.282Z,897
2017-08-08T12:55:34.456Z,892
2017-08-08T12:56:41.944Z,890
2017-08-08T12:57:49.153Z,891
2017-08-08T12:58:56.639Z,893
2017-08-08T13:00:04.126Z,889
2017-08-08T13:01:11.615Z,890
2017-08-08T13:02:19.106Z,891
2017-08-08T13:03:26.592Z,891
2017-08-08T13:04:34.392Z,896
2017-08-08T13:05:41.878Z,898
2017-08-08T13:06:49.386Z,898
2017-08-08T13:07:56.879Z,898
2017-08-08T13:09:04.374Z,896
2017-08-08T13:10:12.168Z,895
2017-08-08T13:11:19.660Z,896
2017-08-08T13:12:27.151Z,898
2017-08-08T13:13:34.639Z,899
2017-08-08T13:14:42.160Z,900
2017-08-08T13:15:49.667Z,899
2017-08-08T13:16:57.155Z,899
2017-08-08T13:18:04.310Z,898
2017-08-08T13:19:11.475Z,899
2017-08-08T13:20:18.963Z,897
2017-08-08T13:21:26.438Z,898
2017-08-08T13:22:33.615Z,898
2017-08-08T13:23:41.131Z,897
2017-08-08T13:24:48.627Z,897
2017-08-08T13:25:56.122Z,897
2017-08-08T13:27:03.247Z,898
2017-08-08T13:28:10.741Z,896
2017-08-08T13:29:18.402Z,896
2017-08-08T13:30:25.908Z,900
2017-08-08T13:31:33.072Z,901
2017-08-08T13:32:40.863Z,900
2017-08-08T13:33:48.363Z,896
2017-08-08T13:34:55.535Z,898
2017-08-08T13:36:03.034Z,899
2017-08-08T13:37:10.529Z,900
2017-08-08T13:38:18.035Z,900
2017-08-08T13:39:25.524Z,902
2017-08-08T13:40:33.012Z,902
2017-08-08T13:41:40.173Z,903
2017-08-08T13:42:48.301Z,903
2017-08-08T13:43:55.766Z,903
2017-08-08T13:45:03.259Z,902
2017-08-08T13:46:10.752Z,902
2017-08-08T13:47:18.246Z,901
2017-08-08T13:48:25.740Z,901
2017-08-08T13:49:33.530Z,899
2017-08-08T13:50:41.018Z,899
2017-08-08T13:51:48.510Z,900
2017-08-08T13:52:55.994Z,901
2017-08-08T13:54:03.488Z,900
2017-08-08T13:55:25.562Z,900
2017-08-08T13:56:33.060Z,900
2017-08-08T13:57:40.554Z,899
2017-08-08T13:58:48.047Z,897
2017-08-08T13:59:55.201Z,897
2017-08-08T14:01:02.994Z,897
2017-08-08T14:02:10.490Z,897
2017-08-08T14:03:17.976Z,899
2017-08-08T14:04:26.055Z,898
2017-08-08T14:05:33.554Z,898
2017-08-08T14:06:41.342Z,899
2017-08-08T14:07:48.835Z,900
2017-08-08T14:08:56.320Z,899
2017-08-08T14:10:03.817Z,898
2017-08-08T14:11:10.978Z,898
2017-08-08T14:12:18.781Z,898
2017-08-08T14:13:26.270Z,898
2017-08-08T14:14:33.438Z,898
2017-08-08T14:15:40.938Z,898
2017-08-08T14:16:48.433Z,898
2017-08-08T14:17:57.486Z,897
2017-08-08T14:19:04.969Z,896
2017-08-08T14:20:12.462Z,897
2017-08-08T14:21:19.951Z,898
2017-08-08T14:22:27.447Z,899
2017-08-08T14:23:35.238Z,900
2017-08-08T14:24:42.729Z,900
2017-08-08T14:25:50.220Z,900
2017-08-08T14:26:57.713Z,901
2017-08-08T14:28:05.208Z,900
2017-08-08T14:29:12.690Z,900
2017-08-08T14:30:21.017Z,898
2017-08-08T14:31:28.523Z,898
2017-08-08T14:32:36.366Z,898
2017-08-08T14:33:43.861Z,898
2017-08-08T14:34:51.023Z,898
2017-08-08T14:35:58.189Z,898
2017-08-08T14:37:05.682Z,898
2017-08-08T14:38:13.151Z,898
2017-08-08T14:39:20.645Z,899
2017-08-08T14:40:28.130Z,899
2017-08-08T14:41:35.622Z,899
2017-08-08T14:42:43.121Z,899
2017-08-08T14:43:50.907Z,897
2017-08-08T14:44:58.390Z,897
2017-08-08T14:46:05.872Z,896
2017-08-08T14:47:13.367Z,895
2017-08-08T14:48:20.860Z,895
2017-08-08T14:49:28.343Z,894
2017-08-08T14:50:35.843Z,895
2017-08-08T14:51:43.330Z,896
2017-08-08T14:52:50.849Z,898
2017-08-08T14:53:58.341Z,899
2017-08-08T14:55:07.635Z,899
2017-08-08T14:56:15.122Z,900
2017-08-08T14:57:21.955Z,900
2017-08-08T14:58:29.115Z,900
2017-08-08T14:59:36.613Z,900
2017-08-08T15:00:44.118Z,900
2017-08-08T15:01:51.605Z,899
2017-08-08T15:02:59.905Z,898
2017-08-08T15:04:07.068Z,898
2017-08-08T15:05:14.465Z,896
2017-08-08T15:06:22.302Z,897
2017-08-08T15:07:30.020Z,896
2017-08-08T15:08:37.508Z,897
2017-08-08T15:09:44.997Z,898
2017-08-08T15:10:52.486Z,899
2017-08-08T15:12:00.391Z,899
2017-08-08T15:13:07.877Z,899
2017-08-08T15:14:15.377Z,898
2017-08-08T15:15:22.871Z,897
2017-08-08T15:16:30.356Z,898
2017-08-08T15:17:37.856Z,898
2017-08-08T15:18:45.349Z,898
2017-08-08T15:19:52.853Z,899
2017-08-08T15:21:00.344Z,899
2017-08-08T15:22:07.834Z,900
2017-08-08T15:23:15.677Z,900
2017-08-08T15:24:23.372Z,900
2017-08-08T15:25:30.861Z,899
2017-08-08T15:26:38.359Z,899
2017-08-08T15:27:45.847Z,899
2017-08-08T15:28:53.709Z,900
2017-08-08T15:30:01.198Z,900